Time;durP1;ratioP1;P1;durP2;ratioP2;P2;SDS_P1;SDS_P2;PMS_P1;PMS_P2;Temp;Humidity;BMP_temperature;BMP_pressure;BME280_temperature;BME280_humidity;BME280_pressure;Samples;Min_cycle;Max_cycle;Signal;HPM_P1;HPM_P2
2023/12/08 00:00:19;;;;;;;152.70;61.00;;;;;;;0.09;100.00;100689.27;108068;1270;22601;-85
2023/12/08 00:03:36;;;;;;;155.70;61.00;;;;;;;0.06;100.00;100685.83;108126;1269;25518;-85
2023/12/08 00:06:27;;;;;;;158.60;62.70;;;;;;;0.07;100.00;100683.94;108131;1269;22630;-86
2023/12/08 00:09:19;;;;;;;164.30;61.00;;;;;;;0.08;100.00;100682.54;107932;1270;24261;-84
2023/12/08 00:12:10;;;;;;;143.70;56.50;;;;;;;0.08;100.00;100681.66;107864;1267;25460;-85
2023/12/08 00:15:02;;;;;;;159.80;58.80;;;;;;;0.12;100.00;100683.23;107927;1270;22626;-86
2023/12/08 00:17:53;;;;;;;159.60;58.90;;;;;;;0.13;100.00;100682.04;107917;1270;22992;-85
2023/12/08 00:20:44;;;;;;;153.40;59.40;;;;;;;0.14;100.00;100677.89;108062;1267;24214;-86
2023/12/08 00:23:36;;;;;;;148.60;55.10;;;;;;;0.14;100.00;100679.77;108084;1264;24228;-86
2023/12/08 00:26:28;;;;;;;146.30;56.30;;;;;;;0.14;100.00;100674.52;107942;1265;22529;-85
2023/12/08 00:29:21;;;;;;;150.90;57.60;;;;;;;0.14;100.00;100674.20;107875;1264;23956;-86
2023/12/08 00:32:12;;;;;;;156.40;57.30;;;;;;;0.12;100.00;100673.41;108060;1264;23000;-85
2023/12/08 00:35:26;;;;;;;149.70;56.60;;;;;;;0.12;100.00;100672.33;108106;1267;25497;-84
2023/12/08 00:38:17;;;;;;;156.40;58.80;;;;;;;0.14;100.00;100665.09;108398;1268;25282;-86
2023/12/08 00:41:09;;;;;;;169.10;58.70;;;;;;;0.15;100.00;100658.73;107860;1268;24206;-84
2023/12/08 00:44:03;;;;;;;148.60;53.90;;;;;;;0.16;100.00;100654.98;111117;1271;22168;-86
2023/12/08 00:46:54;;;;;;;161.70;64.50;;;;;;;0.17;100.00;100646.56;108342;1271;24482;-86
2023/12/08 00:49:46;;;;;;;173.70;65.30;;;;;;;0.16;100.00;100646.17;107972;1269;24465;-86
2023/12/08 00:52:39;;;;;;;166.20;64.10;;;;;;;0.17;100.00;100654.95;107905;1266;22527;-86
2023/12/08 00:55:30;;;;;;;139.00;57.60;;;;;;;0.14;100.00;100657.88;108114;1267;25392;-85
2023/12/08 00:58:22;;;;;;;141.80;56.20;;;;;;;0.16;100.00;100663.44;107892;1269;25377;-85
2023/12/08 01:01:17;;;;;;;154.30;56.70;;;;;;;0.17;100.00;100669.70;107897;1264;22554;-85
2023/12/08 01:04:08;;;;;;;134.40;52.40;;;;;;;0.15;100.00;100664.23;107993;1270;22831;-85
2023/12/08 01:06:59;;;;;;;141.90;54.40;;;;;;;0.12;100.00;100667.14;108619;1269;22516;-85
2023/12/08 01:09:50;;;;;;;144.40;55.50;;;;;;;0.11;100.00;100671.30;108008;1266;22547;-86
2023/12/08 01:12:41;;;;;;;141.90;51.40;;;;;;;0.11;100.00;100667.70;107946;1270;22533;-85
2023/12/08 01:15:33;;;;;;;143.30;51.20;;;;;;;0.10;100.00;100674.77;108127;1266;22591;-85
2023/12/08 01:18:24;;;;;;;139.70;54.80;;;;;;;0.10;100.00;100673.98;108052;1264;25281;-85
2023/12/08 01:21:15;;;;;;;143.40;54.70;;;;;;;0.11;100.00;100680.09;108644;1270;24367;-85
2023/12/08 01:24:07;;;;;;;144.80;51.40;;;;;;;0.12;100.00;100677.03;107973;1266;22532;-85
2023/12/08 01:26:59;;;;;;;132.10;50.10;;;;;;;0.14;100.00;100675.52;108734;1269;22525;-85
2023/12/08 01:29:54;;;;;;;147.70;58.50;;;;;;;0.15;100.00;100676.46;107910;1270;22657;-86
2023/12/08 01:32:46;;;;;;;136.60;50.90;;;;;;;0.16;100.00;100675.28;107891;1270;25109;-85
2023/12/08 01:35:37;;;;;;;136.00;50.70;;;;;;;0.16;100.00;100674.28;108064;1264;22730;-85
2023/12/08 01:38:30;;;;;;;138.10;50.80;;;;;;;0.17;100.00;100669.39;107949;1264;22751;-84
2023/12/08 01:41:21;;;;;;;135.80;49.00;;;;;;;0.19;100.00;100666.17;107868;1264;23357;-86
2023/12/08 01:44:13;;;;;;;123.00;46.20;;;;;;;0.21;100.00;100658.31;108096;1263;22535;-85
2023/12/08 01:47:05;;;;;;;112.20;46.80;;;;;;;0.21;100.00;100660.13;108159;1270;22649;-85
2023/12/08 01:49:57;;;;;;;120.50;46.80;;;;;;;0.22;100.00;100655.17;107756;1271;22523;-85
2023/12/08 01:52:48;;;;;;;131.70;51.30;;;;;;;0.23;100.00;100650.79;107866;1271;22558;-85
2023/12/08 01:55:41;;;;;;;124.90;50.90;;;;;;;0.22;100.00;100648.83;108418;1270;22626;-84
2023/12/08 01:58:32;;;;;;;138.80;51.10;;;;;;;0.22;100.00;100644.44;107987;1266;24055;-85
2023/12/08 02:01:26;;;;;;;137.70;53.80;;;;;;;0.23;100.00;100645.52;107954;1270;24336;-85
2023/12/08 02:04:17;;;;;;;139.90;52.60;;;;;;;0.25;100.00;100643.25;108569;1264;23686;-86
2023/12/08 02:07:08;;;;;;;156.20;58.30;;;;;;;0.26;100.00;100636.80;108593;1264;22520;-85
2023/12/08 02:09:59;;;;;;;172.20;64.70;;;;;;;0.28;100.00;100639.30;107876;1264;23030;-85
2023/12/08 02:12:50;;;;;;;161.50;61.20;;;;;;;0.27;100.00;100637.03;107947;1266;24072;-85
2023/12/08 02:15:42;;;;;;;151.80;56.40;;;;;;;0.26;100.00;100633.66;108060;1270;22606;-85
2023/12/08 02:18:34;;;;;;;144.90;55.20;;;;;;;0.28;100.00;100630.36;108008;1264;22691;-85
2023/12/08 02:21:26;;;;;;;144.20;56.00;;;;;;;0.28;100.00;100625.19;107792;1264;22582;-85
2023/12/08 02:24:19;;;;;;;139.70;52.60;;;;;;;0.28;100.00;100622.11;108041;1260;22755;-84
2023/12/08 02:27:12;;;;;;;134.30;51.60;;;;;;;0.28;100.00;100615.52;107849;1263;24357;-85
2023/12/08 02:30:03;;;;;;;159.40;60.50;;;;;;;0.28;100.00;100610.52;107931;1267;24608;-84
2023/12/08 02:33:08;;;;;;;153.20;55.80;;;;;;;0.28;100.00;100609.18;108003;1266;22522;-85
2023/12/08 02:36:04;;;;;;;140.50;52.80;;;;;;;0.26;100.00;100605.88;107936;1269;22761;-85
2023/12/08 02:38:55;;;;;;;128.10;50.00;;;;;;;0.23;100.00;100605.81;111268;1269;22073;-85
2023/12/08 02:41:47;;;;;;;125.70;49.10;;;;;;;0.23;100.00;100601.67;111162;1264;22089;-84
2023/12/08 02:44:38;;;;;;;137.00;50.10;;;;;;;0.25;100.00;100602.21;111156;1270;22212;-85
2023/12/08 02:47:29;;;;;;;133.70;51.30;;;;;;;0.26;100.00;100599.61;110261;1264;22761;-85
2023/12/08 02:50:20;;;;;;;133.70;51.00;;;;;;;0.26;100.00;100594.04;107937;1260;24073;-84
2023/12/08 02:53:11;;;;;;;130.80;47.00;;;;;;;0.25;100.00;100586.83;107947;1264;24369;-84
2023/12/08 02:56:03;;;;;;;136.80;51.40;;;;;;;0.25;100.00;100584.88;108099;1269;25475;-84
2023/12/08 02:58:54;;;;;;;139.80;52.50;;;;;;;0.24;100.00;100584.56;107811;1271;22672;-85
2023/12/08 03:01:45;;;;;;;125.30;50.00;;;;;;;0.24;100.00;100582.05;107776;1271;24381;-85
2023/12/08 03:04:36;;;;;;;134.60;51.70;;;;;;;0.25;100.00;100578.98;107912;1270;22756;-85
2023/12/08 03:07:27;;;;;;;131.90;48.70;;;;;;;0.26;100.00;100569.96;108098;1267;22532;-85
2023/12/08 03:10:18;;;;;;;141.10;55.00;;;;;;;0.28;100.00;100569.02;107929;1267;22576;-84
2023/12/08 03:13:09;;;;;;;138.50;51.70;;;;;;;0.26;100.00;100568.63;108129;1264;23475;-85
2023/12/08 03:16:00;;;;;;;128.00;52.20;;;;;;;0.24;100.00;100566.28;108568;1270;22581;-85
2023/12/08 03:18:52;;;;;;;139.00;53.30;;;;;;;0.23;100.00;100561.19;108011;1270;23888;-85
2023/12/08 03:21:43;;;;;;;135.00;55.00;;;;;;;0.23;100.00;100561.83;108009;1270;25412;-84
2023/12/08 03:24:34;;;;;;;137.30;52.20;;;;;;;0.22;100.00;100561.20;107989;1254;23142;-85
2023/12/08 03:27:25;;;;;;;133.70;48.60;;;;;;;0.20;100.00;100561.14;107871;1264;24324;-85
2023/12/08 03:30:17;;;;;;;141.50;54.40;;;;;;;0.21;100.00;100558.46;107910;1267;23892;-85
2023/12/08 03:33:08;;;;;;;138.30;49.20;;;;;;;0.22;100.00;100557.52;107903;1267;22655;-85
2023/12/08 03:35:59;;;;;;;126.90;48.30;;;;;;;0.23;100.00;100560.19;107948;1264;25620;-84
2023/12/08 03:38:50;;;;;;;131.40;50.80;;;;;;;0.22;100.00;100557.36;107920;1264;22527;-85
2023/12/08 03:41:41;;;;;;;118.50;46.60;;;;;;;0.22;100.00;100558.54;107895;1267;22616;-85
2023/12/08 03:44:32;;;;;;;125.20;45.80;;;;;;;0.21;100.00;100554.70;107906;1264;22531;-84
2023/12/08 03:47:24;;;;;;;109.10;42.20;;;;;;;0.20;100.00;100552.73;108178;1264;22525;-84
2023/12/08 03:50:15;;;;;;;118.60;43.70;;;;;;;0.20;100.00;100554.95;108067;1269;22645;-85
2023/12/08 03:53:06;;;;;;;113.40;42.10;;;;;;;0.18;100.00;100557.14;108665;1270;22553;-84
2023/12/08 03:55:57;;;;;;;118.50;44.30;;;;;;;0.17;100.00;100561.06;107772;1271;23057;-85
2023/12/08 03:58:48;;;;;;;102.80;42.60;;;;;;;0.17;100.00;100558.86;108058;1270;22651;-85
2023/12/08 04:01:40;;;;;;;107.00;42.10;;;;;;;0.15;100.00;100553.16;108061;1270;22583;-84
2023/12/08 04:04:31;;;;;;;104.60;39.30;;;;;;;0.13;100.00;100548.08;108003;1270;22627;-85
2023/12/08 04:07:22;;;;;;;103.50;40.20;;;;;;;0.11;100.00;100551.61;107899;1260;22590;-84
2023/12/08 04:10:13;;;;;;;105.60;42.20;;;;;;;0.10;100.00;100550.69;107791;1254;24174;-84
2023/12/08 04:13:04;;;;;;;107.20;41.50;;;;;;;0.09;100.00;100546.61;108080;1266;22755;-84
2023/12/08 04:15:55;;;;;;;100.60;41.40;;;;;;;0.07;100.00;100547.95;107830;1267;22643;-84
2023/12/08 04:18:46;;;;;;;98.10;39.30;;;;;;;0.05;100.00;100546.79;107803;1270;22612;-85
2023/12/08 04:21:38;;;;;;;110.00;43.10;;;;;;;0.04;100.00;100540.84;107922;1263;22650;-84
2023/12/08 04:24:29;;;;;;;104.20;43.50;;;;;;;0.04;100.00;100537.08;108026;1266;22658;-84
2023/12/08 04:27:20;;;;;;;106.40;40.90;;;;;;;0.03;100.00;100533.63;108040;1264;24265;-84
2023/12/08 04:30:12;;;;;;;106.00;41.60;;;;;;;0.04;100.00;100527.35;107923;1270;22706;-84
2023/12/08 04:33:04;;;;;;;98.00;40.40;;;;;;;0.06;100.00;100516.66;107960;1263;24336;-84
2023/12/08 04:35:55;;;;;;;105.00;40.10;;;;;;;0.06;100.00;100512.90;107939;1263;22614;-85
2023/12/08 04:38:46;;;;;;;100.90;38.00;;;;;;;0.04;100.00;100506.17;108426;1262;25284;-83
2023/12/08 04:41:37;;;;;;;102.70;39.50;;;;;;;-0.03;100.00;100499.62;107898;1263;24197;-83
2023/12/08 04:44:28;;;;;;;102.20;37.60;;;;;;;-0.06;100.00;100503.80;108171;1264;22598;-83
2023/12/08 04:47:19;;;;;;;96.70;38.70;;;;;;;-0.10;100.00;100510.48;107912;1264;25374;-83
2023/12/08 04:50:11;;;;;;;90.80;34.30;;;;;;;-0.13;100.00;100512.06;107932;1263;22547;-84
2023/12/08 04:53:02;;;;;;;96.80;37.10;;;;;;;-0.21;100.00;100515.80;107867;1271;22519;-83
2023/12/08 04:55:53;;;;;;;98.50;36.80;;;;;;;-0.23;100.00;100518.86;107775;1271;24347;-85
2023/12/08 04:58:44;;;;;;;101.40;36.70;;;;;;;-0.28;100.00;100517.88;107800;1270;22665;-83
2023/12/08 05:01:35;;;;;;;100.00;38.00;;;;;;;-0.35;100.00;100525.64;107889;1270;25435;-84
2023/12/08 05:04:27;;;;;;;98.30;40.50;;;;;;;-0.36;100.00;100526.13;108082;1263;23358;-83
2023/12/08 05:07:17;;;;;;;100.90;37.10;;;;;;;-0.34;100.00;100520.09;108075;1270;22537;-83
2023/12/08 05:10:10;;;;;;;103.60;39.00;;;;;;;-0.33;100.00;100520.87;108074;1270;25368;-84
2023/12/08 05:13:01;;;;;;;95.00;35.40;;;;;;;-0.34;100.00;100522.36;108875;1267;24307;-85
2023/12/08 05:15:52;;;;;;;96.10;36.90;;;;;;;-0.38;100.00;100518.36;108718;1270;23029;-83
2023/12/08 05:18:44;;;;;;;98.90;37.50;;;;;;;-0.39;100.00;100512.50;107877;1262;22792;-84
2023/12/08 05:21:35;;;;;;;96.90;37.70;;;;;;;-0.37;100.00;100508.02;107904;1269;22532;-83
2023/12/08 05:24:26;;;;;;;96.20;34.70;;;;;;;-0.39;100.00;100499.34;108013;1263;24238;-83
2023/12/08 05:27:17;;;;;;;95.60;36.10;;;;;;;-0.41;100.00;100496.30;108068;1263;24978;-83
2023/12/08 05:30:11;;;;;;;92.80;35.20;;;;;;;-0.41;100.00;100496.91;108102;1262;25304;-83
2023/12/08 05:33:02;;;;;;;99.40;35.90;;;;;;;-0.43;100.00;100502.41;111204;1263;22132;-83
2023/12/08 05:35:54;;;;;;;92.70;38.60;;;;;;;-0.47;100.00;100507.13;111130;1263;22290;-83
2023/12/08 05:38:45;;;;;;;103.90;39.80;;;;;;;-0.49;100.00;100508.87;110972;1270;23888;-83
2023/12/08 05:41:36;;;;;;;96.90;37.20;;;;;;;-0.51;100.00;100513.49;108103;1267;22556;-82
2023/12/08 05:44:28;;;;;;;96.40;38.30;;;;;;;-0.54;100.00;100515.78;107863;1271;24253;-83
2023/12/08 05:47:19;;;;;;;89.90;34.90;;;;;;;-0.58;100.00;100517.91;107825;1266;25408;-83
2023/12/08 05:50:11;;;;;;;105.80;36.80;;;;;;;-0.59;100.00;100517.98;107696;1265;22539;-82
2023/12/08 05:53:03;;;;;;;94.20;35.50;;;;;;;-0.58;100.00;100517.20;107731;1271;25034;-83
2023/12/08 05:55:54;;;;;;;100.00;36.50;;;;;;;-0.61;100.00;100513.30;107519;1272;23255;-83
2023/12/08 05:58:45;;;;;;;93.80;33.00;;;;;;;-0.62;100.00;100514.63;107711;1271;24378;-83
2023/12/08 06:01:36;;;;;;;97.20;37.40;;;;;;;-0.64;100.00;100521.14;107776;1268;22569;-83
2023/12/08 06:04:28;;;;;;;93.60;36.80;;;;;;;-0.67;100.00;100523.58;108460;1269;22578;-83
2023/12/08 06:07:19;;;;;;;90.70;36.70;;;;;;;-0.69;100.00;100528.29;108126;1268;25239;-83
2023/12/08 06:10:11;;;;;;;92.90;33.80;;;;;;;-0.68;100.00;100528.84;108439;1265;22556;-83
2023/12/08 06:13:02;;;;;;;102.40;37.70;;;;;;;-0.67;100.00;100522.09;111010;1271;22176;-84
2023/12/08 06:15:53;;;;;;;93.20;33.30;;;;;;;-0.63;100.00;100514.17;110985;1267;22403;-84
2023/12/08 06:18:45;;;;;;;79.50;29.80;;;;;;;-0.62;100.00;100516.27;110980;1265;22176;-84
2023/12/08 06:21:36;;;;;;;87.10;32.50;;;;;;;-0.60;100.00;100520.19;110979;1265;22144;-84
2023/12/08 06:24:27;;;;;;;86.10;33.50;;;;;;;-0.58;100.00;100515.63;110998;1269;22580;-84
2023/12/08 06:27:16;;;;;;;;;;;;;;;-0.57;100.00;100507.56;111003;1272;22321;-84
2023/12/08 06:30:11;;;;;;;93.60;32.80;;;;;;;-0.58;100.00;100504.98;110981;1268;22226;-84
2023/12/08 06:33:01;;;;;;;99.80;34.10;;;;;;;-0.58;100.00;100499.10;110967;1266;22092;-84
2023/12/08 06:35:52;;;;;;;98.10;34.90;;;;;;;-0.57;100.00;100495.27;110990;1271;22143;-90
2023/12/08 06:38:44;;;;;;;92.40;32.90;;;;;;;-0.54;100.00;100491.73;109229;1261;23148;-89
2023/12/08 06:41:36;;;;;;;86.70;32.10;;;;;;;-0.54;100.00;100491.97;108634;1271;22554;-88
2023/12/08 06:44:29;;;;;;;96.00;36.90;;;;;;;-0.52;100.00;100495.73;109120;1271;22632;-88
2023/12/08 06:47:20;;;;;;;108.60;35.80;;;;;;;-0.49;100.00;100500.48;109020;1266;23298;-90
2023/12/08 06:50:12;;;;;;;87.80;28.40;;;;;;;-0.47;100.00;100506.04;108618;1271;25357;-89
2023/12/08 06:53:04;;;;;;;96.80;35.00;;;;;;;-0.51;100.00;100499.70;108605;1271;22562;-88
2023/12/08 06:55:55;;;;;;;102.20;34.40;;;;;;;-0.57;100.00;100495.35;108571;1272;24506;-89
2023/12/08 06:58:47;;;;;;;91.20;35.90;;;;;;;-0.60;100.00;100493.63;108465;1270;22640;-88
2023/12/08 07:01:38;;;;;;;99.00;35.30;;;;;;;-0.61;100.00;100491.98;108797;1271;22554;-88
2023/12/08 07:04:30;;;;;;;100.90;35.20;;;;;;;-0.61;100.00;100491.60;108808;1269;22570;-88
2023/12/08 07:07:22;;;;;;;108.10;41.10;;;;;;;-0.58;100.00;100483.36;108616;1271;23424;-89
2023/12/08 07:10:14;;;;;;;103.40;40.00;;;;;;;-0.57;100.00;100470.27;109239;1271;22545;-89
2023/12/08 07:13:08;;;;;;;111.00;42.00;;;;;;;-0.54;100.00;100460.38;108812;1271;22647;-89
2023/12/08 07:16:19;;;;;;;111.00;42.00;;;;;;;-0.50;100.00;100455.27;108672;1271;24370;-89
2023/12/08 07:19:12;;;;;;;112.70;42.70;;;;;;;-0.44;100.00;100454.23;108922;1265;22527;-90
2023/12/08 07:22:03;;;;;;;118.20;43.80;;;;;;;-0.44;100.00;100463.94;108748;1271;23991;-89
2023/12/08 07:24:55;;;;;;;122.90;44.80;;;;;;;-0.42;100.00;100476.16;108804;1268;22523;-88
2023/12/08 07:27:47;;;;;;;124.00;45.90;;;;;;;-0.42;100.00;100473.26;108833;1271;23340;-89
2023/12/08 07:30:40;;;;;;;128.50;47.60;;;;;;;-0.39;100.00;100473.40;109007;1268;25439;-89
2023/12/08 07:33:31;;;;;;;135.80;48.50;;;;;;;-0.39;100.00;100477.39;108784;1266;22562;-88
2023/12/08 07:36:23;;;;;;;134.20;50.30;;;;;;;-0.39;100.00;100486.40;108752;1271;22591;-89
2023/12/08 07:39:15;;;;;;;134.00;50.00;;;;;;;-0.37;100.00;100485.61;108819;1271;24215;-89
2023/12/08 07:42:07;;;;;;;129.90;48.30;;;;;;;-0.35;100.00;100478.17;108814;1270;22558;-89
2023/12/08 07:44:58;;;;;;;156.00;52.20;;;;;;;-0.33;100.00;100474.70;109016;1269;22605;-88
2023/12/08 07:48:10;;;;;;;138.90;53.20;;;;;;;-0.33;100.00;100474.23;108828;1267;22527;-89
2023/12/08 07:51:03;;;;;;;176.00;67.10;;;;;;;-0.33;100.00;100481.61;108894;1270;22542;-89
2023/12/08 07:53:54;;;;;;;171.80;62.20;;;;;;;-0.29;100.00;100484.95;108883;1266;22532;-88
2023/12/08 07:56:46;;;;;;;160.30;59.00;;;;;;;-0.26;100.00;100479.52;108913;1262;22551;-89
2023/12/08 07:59:37;;;;;;;168.00;58.50;;;;;;;-0.23;100.00;100474.80;108823;1262;22549;-88
2023/12/08 08:02:29;;;;;;;142.60;52.30;;;;;;;-0.21;100.00;100464.60;109050;1263;22548;-88
2023/12/08 08:05:21;;;;;;;151.90;53.80;;;;;;;-0.22;100.00;100458.33;109003;1256;22567;-88
2023/12/08 08:08:13;;;;;;;140.90;52.40;;;;;;;-0.21;100.00;100459.74;108993;1263;22508;-90
2023/12/08 08:11:05;;;;;;;164.80;56.90;;;;;;;-0.20;100.00;100468.45;108770;1270;24376;-89
2023/12/08 08:13:56;;;;;;;148.60;58.70;;;;;;;-0.18;100.00;100465.99;109169;1271;23200;-89
2023/12/08 08:16:47;;;;;;;153.70;55.40;;;;;;;-0.16;100.00;100461.44;109235;1271;26046;-90
2023/12/08 08:19:41;;;;;;;166.60;60.20;;;;;;;-0.14;100.00;100460.73;109200;1271;22549;-89
2023/12/08 08:22:32;;;;;;;172.50;59.90;;;;;;;-0.11;100.00;100468.30;109399;1270;22520;-89
2023/12/08 08:25:24;;;;;;;140.00;54.50;;;;;;;-0.08;100.00;100458.34;109410;1269;22550;-89
2023/12/08 08:28:16;;;;;;;159.40;60.20;;;;;;;-0.09;100.00;100463.59;109213;1267;23222;-89
2023/12/08 08:31:09;;;;;;;168.30;60.40;;;;;;;-0.10;100.00;100474.98;109388;1269;23272;-90
2023/12/08 08:34:00;;;;;;;157.30;58.60;;;;;;;-0.07;100.00;100471.42;109420;1254;23311;-89
2023/12/08 08:36:51;;;;;;;171.10;58.30;;;;;;;-0.05;100.00;100466.70;109520;1267;23089;-89
2023/12/08 08:39:43;;;;;;;154.10;58.90;;;;;;;-0.04;100.00;100463.40;109656;1270;23094;-89
2023/12/08 08:42:36;;;;;;;159.30;58.80;;;;;;;-0.01;100.00;100469.89;109343;1265;25435;-89
2023/12/08 08:45:27;;;;;;;178.30;61.50;;;;;;;0.01;100.00;100477.33;109166;1262;24375;-88
2023/12/08 08:48:19;;;;;;;165.30;53.00;;;;;;;0.02;100.00;100479.30;109030;1270;22543;-89
2023/12/08 08:51:11;;;;;;;157.90;53.80;;;;;;;0.01;100.00;100477.25;109942;1270;22479;-89
2023/12/08 08:54:03;;;;;;;153.60;52.00;;;;;;;0.04;100.00;100481.00;109569;1262;22572;-90
2023/12/08 08:56:55;;;;;;;164.90;53.20;;;;;;;0.04;100.00;100486.65;109939;1263;23208;-89
2023/12/08 08:59:46;;;;;;;166.20;55.20;;;;;;;0.06;100.00;100493.39;109783;1262;22538;-89
2023/12/08 09:02:38;;;;;;;174.80;57.70;;;;;;;0.08;100.00;100500.34;109376;1267;22558;-90
2023/12/08 09:05:32;;;;;;;160.00;56.50;;;;;;;0.08;100.00;100499.09;109802;1263;22545;-89
2023/12/08 09:08:24;;;;;;;190.30;62.30;;;;;;;0.07;100.00;100496.18;109996;1263;22981;-90
2023/12/08 09:11:16;;;;;;;175.30;53.10;;;;;;;0.07;100.00;100499.09;109486;1263;22571;-89
2023/12/08 09:14:07;;;;;;;177.20;55.70;;;;;;;0.09;100.00;100491.63;109308;1270;22566;-90
2023/12/08 09:17:00;;;;;;;153.10;49.70;;;;;;;0.11;100.00;100489.10;109470;1248;22999;-89
2023/12/08 09:19:52;;;;;;;179.00;56.00;;;;;;;0.11;100.00;100475.77;108849;1271;22572;-90
2023/12/08 09:22:43;;;;;;;156.80;53.30;;;;;;;0.13;100.00;100464.77;109905;1270;24400;-90
2023/12/08 09:25:34;;;;;;;182.40;53.90;;;;;;;0.14;100.00;100451.13;109900;1270;22559;-90
2023/12/08 09:28:26;;;;;;;166.80;59.40;;;;;;;0.16;100.00;100446.71;109834;1270;22566;-90
2023/12/08 09:31:18;;;;;;;192.90;60.40;;;;;;;0.18;100.00;100444.67;109078;1270;25303;-88
2023/12/08 09:34:10;;;;;;;172.00;57.10;;;;;;;0.22;100.00;100446.20;108846;1269;22549;-89
2023/12/08 09:37:01;;;;;;;182.80;57.50;;;;;;;0.24;100.00;100434.80;109880;1269;22557;-89
2023/12/08 09:39:53;;;;;;;169.30;54.50;;;;;;;0.24;100.00;100422.80;108522;1270;25297;-87
2023/12/08 09:42:53;;;;;;;176.20;55.50;;;;;;;0.26;100.00;100420.59;108503;1270;22521;-89
2023/12/08 09:45:46;;;;;;;163.80;55.30;;;;;;;0.25;100.00;100420.77;108374;1262;24384;-88
2023/12/08 09:48:45;;;;;;;171.90;55.30;;;;;;;0.26;100.00;100417.61;108605;1270;25398;-89
2023/12/08 09:51:35;;;;;;;176.40;58.60;;;;;;;0.28;100.00;100422.14;108375;1268;22619;-88
2023/12/08 09:54:27;;;;;;;180.50;59.00;;;;;;;0.31;100.00;100424.80;108518;1270;22517;-88
2023/12/08 09:57:20;;;;;;;172.10;56.80;;;;;;;0.35;100.00;100417.61;108663;1269;25302;-88
2023/12/08 10:00:20;;;;;;;161.60;56.30;;;;;;;0.38;100.00;100408.33;109552;1270;22943;-89
2023/12/08 10:03:16;;;;;;;158.70;54.50;;;;;;;0.38;100.00;100406.05;108801;1267;22552;-89
2023/12/08 10:06:17;;;;;;;170.40;55.70;;;;;;;0.38;100.00;100400.95;108795;1266;25296;-89
2023/12/08 10:09:12;;;;;;;178.80;65.30;;;;;;;0.40;100.00;100399.77;108816;1267;22527;-89
2023/12/08 10:12:04;;;;;;;177.70;60.10;;;;;;;0.47;100.00;100402.83;109688;1270;22580;-89
2023/12/08 10:15:00;;;;;;;164.80;56.60;;;;;;;0.50;100.00;100400.52;108788;1269;22585;-88
2023/12/08 10:17:58;;;;;;;169.40;55.90;;;;;;;0.54;100.00;100394.35;108532;1270;24263;-88
2023/12/08 10:20:49;;;;;;;171.80;57.00;;;;;;;0.55;100.00;100387.77;108952;1262;23895;-89
2023/12/08 10:23:40;;;;;;;160.10;52.00;;;;;;;0.59;100.00;100387.33;108989;1267;23206;-90
2023/12/08 10:26:34;;;;;;;159.40;54.30;;;;;;;0.62;100.00;100383.92;109420;1269;25364;-90
2023/12/08 10:29:29;;;;;;;164.30;51.70;;;;;;;0.65;100.00;100387.80;109223;1269;22608;-90
2023/12/08 10:32:21;;;;;;;164.40;54.70;;;;;;;0.66;100.00;100383.73;109024;1263;22689;-90
2023/12/08 10:35:13;;;;;;;141.40;49.60;;;;;;;0.65;100.00;100378.78;108868;1270;22552;-90
2023/12/08 10:38:17;;;;;;;151.30;52.70;;;;;;;0.65;100.00;100376.11;109196;1270;22543;-89
2023/12/08 10:41:11;;;;;;;135.50;51.40;;;;;;;0.63;100.00;100364.29;108670;1269;23030;-90
2023/12/08 10:44:08;;;;;;;122.20;46.20;;;;;;;0.62;100.00;100365.55;108935;1270;22556;-91
2023/12/08 10:47:05;;;;;;;101.50;37.60;;;;;;;0.59;100.00;100360.73;109209;1271;24499;-90
2023/12/08 10:49:58;;;;;;;110.00;38.00;;;;;;;0.55;100.00;100354.33;108849;1270;22559;-89
2023/12/08 10:52:52;;;;;;;104.70;36.30;;;;;;;0.51;100.00;100348.23;111187;1269;22137;-89
2023/12/08 10:55:43;;;;;;;112.30;44.20;;;;;;;0.48;100.00;100343.65;111150;1270;22144;-89
2023/12/08 10:58:36;;;;;;;110.90;42.30;;;;;;;0.47;100.00;100337.08;111144;1256;22251;-89
2023/12/08 11:01:28;;;;;;;104.50;39.20;;;;;;;0.48;100.00;100330.86;111170;1269;22076;-89
2023/12/08 11:04:25;;;;;;;115.20;39.80;;;;;;;0.53;100.00;100324.98;111161;1266;22083;-89
2023/12/08 11:07:23;;;;;;;109.50;40.50;;;;;;;0.53;100.00;100323.98;111141;1269;22172;-89
2023/12/08 11:10:18;;;;;;;114.70;41.80;;;;;;;0.51;100.00;100320.47;111071;1270;22599;-89
2023/12/08 11:13:13;;;;;;;96.50;33.00;;;;;;;0.52;100.00;100319.20;111155;1270;22153;-89
2023/12/08 11:16:24;;;;;;;115.80;44.30;;;;;;;0.48;100.00;100311.15;111079;1270;22178;-91
2023/12/08 11:19:16;;;;;;;121.10;48.20;;;;;;;0.46;100.00;100303.64;111131;1262;22188;-89
2023/12/08 11:22:08;;;;;;;122.90;45.70;;;;;;;0.47;100.00;100309.05;111117;1270;23162;-90
2023/12/08 11:25:02;;;;;;;122.80;48.60;;;;;;;0.50;100.00;100304.70;111191;1269;22590;-89
2023/12/08 11:28:06;;;;;;;116.20;44.80;;;;;;;0.52;100.00;100300.52;111174;1267;22112;-90
2023/12/08 11:31:02;;;;;;;114.70;44.50;;;;;;;0.48;100.00;100307.61;111149;1269;23105;-90
2023/12/08 11:33:58;;;;;;;112.60;44.20;;;;;;;0.50;100.00;100313.73;111036;1269;22897;-89
2023/12/08 11:36:50;;;;;;;118.20;48.40;;;;;;;0.52;100.00;100317.46;111155;1266;22100;-89
2023/12/08 11:39:45;;;;;;;111.20;45.10;;;;;;;0.50;100.00;100323.84;111172;1266;22916;-90
2023/12/08 11:42:37;;;;;;;100.00;41.70;;;;;;;0.46;100.00;100325.30;111142;1254;22095;-89
2023/12/08 11:45:28;;;;;;;113.70;49.10;;;;;;;0.45;100.00;100327.29;111158;1268;23083;-91
2023/12/08 11:48:20;;;;;;;110.30;44.90;;;;;;;0.43;100.00;100325.27;111165;1267;22223;-88
2023/12/08 11:51:13;;;;;;;108.10;45.90;;;;;;;0.44;100.00;100322.51;111131;1267;22789;-90
2023/12/08 11:54:05;;;;;;;117.50;48.00;;;;;;;0.45;100.00;100325.16;111189;1266;22670;-90
2023/12/08 11:56:56;;;;;;;106.20;44.10;;;;;;;0.47;100.00;100320.52;111130;1263;22214;-90
2023/12/08 11:59:47;;;;;;;110.90;44.60;;;;;;;0.46;100.00;100321.62;111164;1268;22247;-89
2023/12/08 12:02:38;;;;;;;102.00;43.40;;;;;;;0.47;100.00;100321.69;111191;1269;22177;-89
2023/12/08 12:05:29;;;;;;;109.20;43.00;;;;;;;0.47;100.00;100327.73;111156;1263;22140;-89
2023/12/08 12:08:22;;;;;;;113.00;45.60;;;;;;;0.48;100.00;100327.24;111234;1263;22155;-90
2023/12/08 12:11:15;;;;;;;101.20;42.50;;;;;;;0.48;100.00;100324.96;111139;1262;22310;-89
2023/12/08 12:14:12;;;;;;;107.30;44.50;;;;;;;0.45;100.00;100318.48;111181;1263;22600;-89
2023/12/08 12:17:03;;;;;;;111.00;48.30;;;;;;;0.46;100.00;100319.33;111166;1270;22139;-90
2023/12/08 12:19:55;;;;;;;118.50;49.80;;;;;;;0.47;100.00;100312.83;111153;1270;22174;-90
2023/12/08 12:22:47;;;;;;;122.30;50.60;;;;;;;0.48;100.00;100315.56;111122;1270;22134;-89
2023/12/08 12:25:39;;;;;;;113.30;45.40;;;;;;;0.50;100.00;100312.55;111122;1259;22169;-89
2023/12/08 12:28:30;;;;;;;113.10;45.50;;;;;;;0.50;100.00;100304.06;111155;1263;22085;-90
2023/12/08 12:31:21;;;;;;;116.10;43.40;;;;;;;0.50;100.00;100294.35;111160;1263;22317;-90
2023/12/08 12:34:10;;;;;;;;;;;;;;;0.51;100.00;100290.80;111158;1263;22392;-89
2023/12/08 12:37:01;;;;;;;108.20;42.00;;;;;;;0.53;100.00;100285.05;111176;1269;22156;-90
2023/12/08 12:39:52;;;;;;;111.10;44.10;;;;;;;0.54;100.00;100282.84;111163;1270;22267;-90
2023/12/08 12:42:45;;;;;;;106.40;42.40;;;;;;;0.58;100.00;100283.11;111107;1271;22147;-89
2023/12/08 12:45:37;;;;;;;107.40;45.40;;;;;;;0.60;100.00;100283.02;111002;1271;22135;-89